sensor_id;sensor_type;location;lat;lon;timestamp;pressure;altitude;pressure_sealevel;temperature;humidity
17362;BME280;8798;51.938;4.348;2023-03-31T00:01:20;100308.16;;;13.19;72.16
17362;BME280;8798;51.938;4.348;2023-03-31T00:03:49;100320.44;;;13.21;71.79
17362;BME280;8798;51.938;4.348;2023-03-31T00:06:17;100316.91;;;13.21;71.93
17362;BME280;8798;51.938;4.348;2023-03-31T00:08:46;100313.34;;;13.20;72.13
17362;BME280;8798;51.938;4.348;2023-03-31T00:11:18;100323.13;;;13.21;72.13
17362;BME280;8798;51.938;4.348;2023-03-31T00:13:47;100311.50;;;13.21;72.12
17362;BME280;8798;51.938;4.348;2023-03-31T00:16:16;100302.91;;;13.17;71.58
17362;BME280;8798;51.938;4.348;2023-03-31T00:18:44;100292.34;;;13.16;72.20
17362;BME280;8798;51.938;4.348;2023-03-31T00:21:15;100277.38;;;13.13;72.33
17362;BME280;8798;51.938;4.348;2023-03-31T00:23:52;100280.06;;;13.13;72.32
17362;BME280;8798;51.938;4.348;2023-03-31T00:26:20;100274.66;;;13.13;72.04
17362;BME280;8798;51.938;4.348;2023-03-31T00:28:48;100269.44;;;13.11;72.46
17362;BME280;8798;51.938;4.348;2023-03-31T00:31:18;100285.06;;;13.16;72.54
17362;BME280;8798;51.938;4.348;2023-03-31T00:33:46;100295.66;;;13.18;72.24
17362;BME280;8798;51.938;4.348;2023-03-31T00:36:14;100304.41;;;13.20;72.36
17362;BME280;8798;51.938;4.348;2023-03-31T00:38:47;100314.84;;;13.23;72.67
17362;BME280;8798;51.938;4.348;2023-03-31T00:41:15;100326.97;;;13.27;72.76
17362;BME280;8798;51.938;4.348;2023-03-31T00:44:01;100345.31;;;13.31;72.72
17362;BME280;8798;51.938;4.348;2023-03-31T00:46:36;100351.38;;;13.33;72.57
17362;BME280;8798;51.938;4.348;2023-03-31T00:49:13;100358.25;;;13.36;72.68
17362;BME280;8798;51.938;4.348;2023-03-31T00:51:43;100368.69;;;13.39;72.66
17362;BME280;8798;51.938;4.348;2023-03-31T00:54:12;100374.75;;;13.41;72.60
17362;BME280;8798;51.938;4.348;2023-03-31T00:56:42;100373.72;;;13.42;73.03
17362;BME280;8798;51.938;4.348;2023-03-31T00:59:13;100363.94;;;13.41;72.80
17362;BME280;8798;51.938;4.348;2023-03-31T01:01:45;100366.47;;;13.43;72.94
17362;BME280;8798;51.938;4.348;2023-03-31T01:04:16;100358.72;;;13.40;72.99
17362;BME280;8798;51.938;4.348;2023-03-31T01:06:54;100336.69;;;13.36;73.21
17362;BME280;8798;51.938;4.348;2023-03-31T01:09:28;100321.03;;;13.31;73.21
17362;BME280;8798;51.938;4.348;2023-03-31T01:12:01;100290.03;;;13.27;73.48
17362;BME280;8798;51.938;4.348;2023-03-31T01:14:30;100263.78;;;13.21;73.23
17362;BME280;8798;51.938;4.348;2023-03-31T01:16:59;100251.69;;;13.17;73.39
17362;BME280;8798;51.938;4.348;2023-03-31T01:19:34;100253.53;;;13.17;73.42
17362;BME280;8798;51.938;4.348;2023-03-31T01:22:37;100247.13;;;13.18;73.38
17362;BME280;8798;51.938;4.348;2023-03-31T01:25:38;100227.78;;;13.14;73.31
17362;BME280;8798;51.938;4.348;2023-03-31T01:28:23;100210.28;;;13.10;73.88
17362;BME280;8798;51.938;4.348;2023-03-31T01:34:38;100195.50;;;13.06;73.72
17362;BME280;8798;51.938;4.348;2023-03-31T01:37:42;100163.88;;;13.00;74.06
17362;BME280;8798;51.938;4.348;2023-03-31T01:40:47;100151.59;;;12.97;73.62
17362;BME280;8798;51.938;4.348;2023-03-31T01:43:22;100134.31;;;12.91;73.97
17362;BME280;8798;51.938;4.348;2023-03-31T01:45:57;100130.81;;;12.91;73.78
17362;BME280;8798;51.938;4.348;2023-03-31T01:48:37;100127.25;;;12.90;74.50
17362;BME280;8798;51.938;4.348;2023-03-31T01:51:12;100125.56;;;12.89;73.95
17362;BME280;8798;51.938;4.348;2023-03-31T01:53:48;100120.19;;;12.89;74.73
17362;BME280;8798;51.938;4.348;2023-03-31T01:56:21;100127.25;;;12.90;74.26
17362;BME280;8798;51.938;4.348;2023-03-31T01:58:55;100117.50;;;12.89;74.76
17362;BME280;8798;51.938;4.348;2023-03-31T02:01:28;100114.78;;;12.89;74.54
17362;BME280;8798;51.938;4.348;2023-03-31T02:04:02;100109.56;;;12.88;74.44
17362;BME280;8798;51.938;4.348;2023-03-31T02:06:34;100094.63;;;12.85;74.83
17362;BME280;8798;51.938;4.348;2023-03-31T02:09:09;100085.91;;;12.83;74.58
17362;BME280;8798;51.938;4.348;2023-03-31T02:11:41;100085.03;;;12.83;74.45
17362;BME280;8798;51.938;4.348;2023-03-31T02:14:11;100071.13;;;12.79;74.68
17362;BME280;8798;51.938;4.348;2023-03-31T02:16:45;100045.53;;;12.75;74.80
17362;BME280;8798;51.938;4.348;2023-03-31T02:19:17;100027.88;;;12.73;75.18
17362;BME280;8798;51.938;4.348;2023-03-31T02:21:47;100024.38;;;12.72;75.10
17362;BME280;8798;51.938;4.348;2023-03-31T02:24:18;100019.16;;;12.70;74.94
17362;BME280;8798;51.938;4.348;2023-03-31T02:26:52;100018.31;;;12.70;74.82
17362;BME280;8798;51.938;4.348;2023-03-31T02:29:21;100033.28;;;12.73;75.14
17362;BME280;8798;51.938;4.348;2023-03-31T02:31:54;100048.25;;;12.75;75.24
17362;BME280;8798;51.938;4.348;2023-03-31T02:34:24;100040.16;;;12.75;75.46
17362;BME280;8798;51.938;4.348;2023-03-31T02:36:52;100029.59;;;12.74;75.39
17362;BME280;8798;51.938;4.348;2023-03-31T02:39:23;100022.72;;;12.71;75.43
17362;BME280;8798;51.938;4.348;2023-03-31T02:41:54;100015.44;;;12.72;75.40
17362;BME280;8798;51.938;4.348;2023-03-31T02:44:23;100003.19;;;12.69;75.19
17362;BME280;8798;51.938;4.348;2023-03-31T02:46:51;99999.47;;;12.70;75.78
17362;BME280;8798;51.938;4.348;2023-03-31T02:49:21;99991.59;;;12.68;75.67
17362;BME280;8798;51.938;4.348;2023-03-31T02:52:03;99995.09;;;12.69;75.49
17362;BME280;8798;51.938;4.348;2023-03-31T02:57:51;99977.63;;;12.65;75.61
17362;BME280;8798;51.938;4.348;2023-03-31T03:00:34;99943.53;;;12.57;75.90
17362;BME280;8798;51.938;4.348;2023-03-31T03:03:17;99903.41;;;12.47;75.68
17362;BME280;8798;51.938;4.348;2023-03-31T03:05:53;99876.38;;;12.41;75.83
17362;BME280;8798;51.938;4.348;2023-03-31T03:08:42;99862.47;;;12.37;75.92
17362;BME280;8798;51.938;4.348;2023-03-31T03:11:19;99851.06;;;12.35;76.29
17362;BME280;8798;51.938;4.348;2023-03-31T03:13:52;99837.31;;;12.30;76.55
17362;BME280;8798;51.938;4.348;2023-03-31T03:16:24;99821.56;;;12.27;76.05
17362;BME280;8798;51.938;4.348;2023-03-31T03:18:57;99812.00;;;12.24;75.99
17362;BME280;8798;51.938;4.348;2023-03-31T03:21:26;99798.69;;;12.23;76.73
17362;BME280;8798;51.938;4.348;2023-03-31T03:23:54;99791.00;;;12.20;76.54
17362;BME280;8798;51.938;4.348;2023-03-31T03:26:22;99777.94;;;12.17;76.30
17362;BME280;8798;51.938;4.348;2023-03-31T03:28:55;99754.44;;;12.11;76.45
17362;BME280;8798;51.938;4.348;2023-03-31T03:31:23;99756.13;;;12.12;76.13
17362;BME280;8798;51.938;4.348;2023-03-31T03:33:52;99750.75;;;12.12;76.52
17362;BME280;8798;51.938;4.348;2023-03-31T03:36:20;99759.44;;;12.14;76.96
17362;BME280;8798;51.938;4.348;2023-03-31T03:38:49;99769.84;;;12.17;76.31
17362;BME280;8798;51.938;4.348;2023-03-31T03:41:17;99779.41;;;12.19;76.99
17362;BME280;8798;51.938;4.348;2023-03-31T03:43:45;99800.41;;;12.24;76.92
17362;BME280;8798;51.938;4.348;2023-03-31T03:46:14;99803.91;;;12.24;77.06
17362;BME280;8798;51.938;4.348;2023-03-31T03:48:42;99800.41;;;12.24;76.53
17362;BME280;8798;51.938;4.348;2023-03-31T03:51:10;99803.69;;;12.26;76.52
17362;BME280;8798;51.938;4.348;2023-03-31T03:53:37;99805.38;;;12.27;76.68
17362;BME280;8798;51.938;4.348;2023-03-31T03:56:05;99807.06;;;12.28;76.72
17362;BME280;8798;51.938;4.348;2023-03-31T03:58:34;99807.88;;;12.29;77.03
17362;BME280;8798;51.938;4.348;2023-03-31T04:01:02;99814.75;;;12.31;76.90
17362;BME280;8798;51.938;4.348;2023-03-31T04:03:31;99824.31;;;12.34;77.13
17362;BME280;8798;51.938;4.348;2023-03-31T04:05:59;99822.47;;;12.34;76.92
17362;BME280;8798;51.938;4.348;2023-03-31T04:08:27;99830.34;;;12.36;77.10
17362;BME280;8798;51.938;4.348;2023-03-31T04:10:54;99835.53;;;12.37;77.09
17362;BME280;8798;51.938;4.348;2023-03-31T04:13:23;99827.66;;;12.36;77.10
17362;BME280;8798;51.938;4.348;2023-03-31T04:15:51;99825.59;;;12.38;77.39
17362;BME280;8798;51.938;4.348;2023-03-31T04:18:18;99828.13;;;12.39;77.36
17362;BME280;8798;51.938;4.348;2023-03-31T04:20:51;99822.72;;;12.39;77.39
17362;BME280;8798;51.938;4.348;2023-03-31T04:23:29;99828.94;;;12.40;77.26
17362;BME280;8798;51.938;4.348;2023-03-31T04:25:57;99827.09;;;12.40;77.54
17362;BME280;8798;51.938;4.348;2023-03-31T04:28:25;99826.91;;;12.42;77.43
17362;BME280;8798;51.938;4.348;2023-03-31T04:31:00;99818.19;;;12.40;77.68
17362;BME280;8798;51.938;4.348;2023-03-31T04:33:28;99803.06;;;12.39;77.78
17362;BME280;8798;51.938;4.348;2023-03-31T04:36:00;99814.44;;;12.41;78.01
17362;BME280;8798;51.938;4.348;2023-03-31T04:38:33;99805.53;;;12.40;77.54
17362;BME280;8798;51.938;4.348;2023-03-31T04:41:01;99795.97;;;12.38;77.46
17362;BME280;8798;51.938;4.348;2023-03-31T04:43:28;99783.56;;;12.37;77.86
17362;BME280;8798;51.938;4.348;2023-03-31T04:45:56;99780.00;;;12.36;78.12
17362;BME280;8798;51.938;4.348;2023-03-31T04:48:24;99769.44;;;12.35;77.70
17362;BME280;8798;51.938;4.348;2023-03-31T04:50:52;99765.06;;;12.34;77.40
17362;BME280;8798;51.938;4.348;2023-03-31T04:53:21;99769.44;;;12.35;77.49
17362;BME280;8798;51.938;4.348;2023-03-31T04:55:49;99758.66;;;12.35;77.49
17362;BME280;8798;51.938;4.348;2023-03-31T04:58:17;99759.66;;;12.34;77.94
17362;BME280;8798;51.938;4.348;2023-03-31T05:00:45;99751.41;;;12.35;77.96
17362;BME280;8798;51.938;4.348;2023-03-31T05:03:12;99756.78;;;12.35;78.02
17362;BME280;8798;51.938;4.348;2023-03-31T05:05:40;99747.88;;;12.35;78.37
17362;BME280;8798;51.938;4.348;2023-03-31T05:08:08;99742.28;;;12.36;78.20
17362;BME280;8798;51.938;4.348;2023-03-31T05:10:37;99746.66;;;12.37;78.24
17362;BME280;8798;51.938;4.348;2023-03-31T05:13:08;99744.81;;;12.38;78.23
17362;BME280;8798;51.938;4.348;2023-03-31T05:15:36;99756.41;;;12.38;77.74
17362;BME280;8798;51.938;4.348;2023-03-31T05:18:04;99753.72;;;12.38;78.28
17362;BME280;8798;51.938;4.348;2023-03-31T05:20:32;99734.22;;;12.36;77.95
17362;BME280;8798;51.938;4.348;2023-03-31T05:23:00;99724.47;;;12.35;78.61
17362;BME280;8798;51.938;4.348;2023-03-31T05:25:28;99709.34;;;12.34;77.82
17362;BME280;8798;51.938;4.348;2023-03-31T05:28:00;99719.91;;;12.36;78.14
17362;BME280;8798;51.938;4.348;2023-03-31T05:30:28;99702.28;;;12.33;77.96
17362;BME280;8798;51.938;4.348;2023-03-31T05:32:56;99687.34;;;12.31;78.43
17362;BME280;8798;51.938;4.348;2023-03-31T05:35:25;99691.91;;;12.30;78.13
17362;BME280;8798;51.938;4.348;2023-03-31T05:37:52;99675.94;;;12.29;78.37
17362;BME280;8798;51.938;4.348;2023-03-31T05:40:20;99675.94;;;12.29;77.96
17362;BME280;8798;51.938;4.348;2023-03-31T05:42:48;99675.75;;;12.30;78.30
17362;BME280;8798;51.938;4.348;2023-03-31T05:45:17;99673.25;;;12.29;78.32
17362;BME280;8798;51.938;4.348;2023-03-31T05:47:45;99660.00;;;12.27;78.09
17362;BME280;8798;51.938;4.348;2023-03-31T05:50:13;99651.25;;;12.25;78.47
17362;BME280;8798;51.938;4.348;2023-03-31T05:52:41;99647.75;;;12.24;78.46
17362;BME280;8798;51.938;4.348;2023-03-31T05:55:09;99647.75;;;12.24;78.25
17362;BME280;8798;51.938;4.348;2023-03-31T05:57:38;99623.69;;;12.23;78.18
17362;BME280;8798;51.938;4.348;2023-03-31T06:00:07;99630.13;;;12.22;77.84
17362;BME280;8798;51.938;4.348;2023-03-31T06:02:38;99617.66;;;12.21;78.09
17362;BME280;8798;51.938;4.348;2023-03-31T06:05:07;99596.69;;;12.16;78.16
17362;BME280;8798;51.938;4.348;2023-03-31T06:07:35;99574.09;;;12.11;78.57
17362;BME280;8798;51.938;4.348;2023-03-31T06:10:03;99561.84;;;12.08;78.02
17362;BME280;8798;51.938;4.348;2023-03-31T06:12:33;99553.13;;;12.06;77.92
17362;BME280;8798;51.938;4.348;2023-03-31T06:15:02;99550.44;;;12.06;78.11
17362;BME280;8798;51.938;4.348;2023-03-31T06:17:30;99549.63;;;12.05;78.25
17362;BME280;8798;51.938;4.348;2023-03-31T06:19:59;99544.22;;;12.05;78.47
17362;BME280;8798;51.938;4.348;2023-03-31T06:22:35;99534.50;;;12.04;78.38
17362;BME280;8798;51.938;4.348;2023-03-31T06:25:04;99546.09;;;12.05;78.42
17362;BME280;8798;51.938;4.348;2023-03-31T06:27:31;99549.63;;;12.05;78.23
17362;BME280;8798;51.938;4.348;2023-03-31T06:29:59;99549.22;;;12.09;78.33
17362;BME280;8798;51.938;4.348;2023-03-31T06:32:27;99565.19;;;12.10;78.74
17362;BME280;8798;51.938;4.348;2023-03-31T06:34:55;99575.38;;;12.15;78.17
17362;BME280;8798;51.938;4.348;2023-03-31T06:37:24;99584.09;;;12.17;78.53
17362;BME280;8798;51.938;4.348;2023-03-31T06:39:52;99580.38;;;12.18;78.44
17362;BME280;8798;51.938;4.348;2023-03-31T06:42:20;99597.81;;;12.22;78.22
17362;BME280;8798;51.938;4.348;2023-03-31T06:44:48;99602.78;;;12.25;78.96
17362;BME280;8798;51.938;4.348;2023-03-31T06:47:16;99610.69;;;12.26;78.66
17362;BME280;8798;51.938;4.348;2023-03-31T06:49:44;99620.84;;;12.31;78.47
17362;BME280;8798;51.938;4.348;2023-03-31T06:52:11;99633.75;;;12.36;78.61
17362;BME280;8798;51.938;4.348;2023-03-31T06:54:41;99639.13;;;12.36;78.56
17362;BME280;8798;51.938;4.348;2023-03-31T06:57:09;99642.47;;;12.38;78.37
17362;BME280;8798;51.938;4.348;2023-03-31T06:59:37;99656.19;;;12.43;78.69
17362;BME280;8798;51.938;4.348;2023-03-31T07:02:05;99657.00;;;12.43;78.72
17362;BME280;8798;51.938;4.348;2023-03-31T07:04:33;99651.63;;;12.43;78.70
17362;BME280;8798;51.938;4.348;2023-03-31T07:07:00;99670.94;;;12.47;78.86
17362;BME280;8798;51.938;4.348;2023-03-31T07:09:28;99686.53;;;12.52;78.43
17362;BME280;8798;51.938;4.348;2023-03-31T07:11:57;99699.41;;;12.56;78.58
17362;BME280;8798;51.938;4.348;2023-03-31T07:14:25;99693.19;;;12.56;78.64
17362;BME280;8798;51.938;4.348;2023-03-31T07:16:53;99685.31;;;12.54;78.87
17362;BME280;8798;51.938;4.348;2023-03-31T07:19:21;99685.94;;;12.56;78.59
17362;BME280;8798;51.938;4.348;2023-03-31T07:21:49;99695.50;;;12.59;78.59
17362;BME280;8798;51.938;4.348;2023-03-31T07:24:16;99696.13;;;12.61;78.99
17362;BME280;8798;51.938;4.348;2023-03-31T07:26:44;99700.28;;;12.63;78.68
17362;BME280;8798;51.938;4.348;2023-03-31T07:29:13;99717.56;;;12.69;78.66
17362;BME280;8798;51.938;4.348;2023-03-31T07:31:41;99737.50;;;12.75;78.66
17362;BME280;8798;51.938;4.348;2023-03-31T07:34:09;99738.97;;;12.77;78.61
17362;BME280;8798;51.938;4.348;2023-03-31T07:36:37;99758.28;;;12.81;79.19
17362;BME280;8798;51.938;4.348;2023-03-31T07:39:05;99766.63;;;12.86;79.06
17362;BME280;8798;51.938;4.348;2023-03-31T07:41:33;99772.66;;;12.88;78.79
17362;BME280;8798;51.938;4.348;2023-03-31T07:44:01;99779.31;;;12.92;79.36
17362;BME280;8798;51.938;4.348;2023-03-31T07:46:30;99785.56;;;12.93;78.93
17362;BME280;8798;51.938;4.348;2023-03-31T07:48:58;99795.75;;;12.97;79.17
17362;BME280;8798;51.938;4.348;2023-03-31T07:51:28;99813.88;;;13.03;79.14
17362;BME280;8798;51.938;4.348;2023-03-31T07:53:56;99826.56;;;13.09;78.40
17362;BME280;8798;51.938;4.348;2023-03-31T07:56:24;99837.59;;;13.15;78.79
17362;BME280;8798;51.938;4.348;2023-03-31T07:58:52;99855.06;;;13.19;78.80
17362;BME280;8798;51.938;4.348;2023-03-31T08:01:23;99874.84;;;13.26;78.78
17362;BME280;8798;51.938;4.348;2023-03-31T08:03:55;99885.09;;;13.30;78.95
17362;BME280;8798;51.938;4.348;2023-03-31T08:06:24;99888.41;;;13.32;79.13
17362;BME280;8798;51.938;4.348;2023-03-31T08:08:53;99874.91;;;13.32;78.76
17362;BME280;8798;51.938;4.348;2023-03-31T08:11:20;99872.22;;;13.32;78.78
17362;BME280;8798;51.938;4.348;2023-03-31T08:13:49;99863.94;;;13.34;78.98
17362;BME280;8798;51.938;4.348;2023-03-31T08:16:17;99846.28;;;13.31;79.02
17362;BME280;8798;51.938;4.348;2023-03-31T08:18:45;99804.91;;;13.24;79.19
17362;BME280;8798;51.938;4.348;2023-03-31T08:21:15;99772.47;;;13.18;78.71
17362;BME280;8798;51.938;4.348;2023-03-31T08:23:43;99763.56;;;13.17;79.00
17362;BME280;8798;51.938;4.348;2023-03-31T08:26:12;99758.38;;;13.16;78.83
17362;BME280;8798;51.938;4.348;2023-03-31T08:28:43;99763.16;;;13.20;79.16
17362;BME280;8798;51.938;4.348;2023-03-31T08:31:11;99781.47;;;13.25;78.57
17362;BME280;8798;51.938;4.348;2023-03-31T08:33:42;99797.72;;;13.31;78.65
17362;BME280;8798;51.938;4.348;2023-03-31T08:36:10;99831.81;;;13.39;78.83
17362;BME280;8798;51.938;4.348;2023-03-31T08:38:41;99825.19;;;13.42;78.43
17362;BME280;8798;51.938;4.348;2023-03-31T08:41:22;99796.94;;;13.38;78.50
17362;BME280;8798;51.938;4.348;2023-03-31T08:43:54;99791.75;;;13.36;79.10
17362;BME280;8798;51.938;4.348;2023-03-31T08:46:27;99782.63;;;13.37;78.86
17362;BME280;8798;51.938;4.348;2023-03-31T08:48:57;99801.56;;;13.44;78.57
17362;BME280;8798;51.938;4.348;2023-03-31T08:51:27;99818.81;;;13.49;78.52
17362;BME280;8798;51.938;4.348;2023-03-31T08:54:00;99857.09;;;13.60;78.68
17362;BME280;8798;51.938;4.348;2023-03-31T08:56:32;99875.84;;;13.68;78.76
17362;BME280;8798;51.938;4.348;2023-03-31T08:59:03;99898.31;;;13.75;78.71
17362;BME280;8798;51.938;4.348;2023-03-31T09:01:37;99940.97;;;13.86;78.51
17362;BME280;8798;51.938;4.348;2023-03-31T09:04:39;99944.72;;;13.92;78.63
17362;BME280;8798;51.938;4.348;2023-03-31T09:07:15;99913.78;;;13.88;78.64
17362;BME280;8798;51.938;4.348;2023-03-31T09:09:53;99865.31;;;13.80;78.32
17362;BME280;8798;51.938;4.348;2023-03-31T09:12:30;99868.88;;;13.80;78.04
17362;BME280;8798;51.938;4.348;2023-03-31T09:15:03;99870.13;;;13.84;78.40
17362;BME280;8798;51.938;4.348;2023-03-31T09:17:38;99864.53;;;13.86;78.34
17362;BME280;8798;51.938;4.348;2023-03-31T09:20:12;99849.56;;;13.83;78.31
17362;BME280;8798;51.938;4.348;2023-03-31T09:22:45;99819.66;;;13.78;78.40
17362;BME280;8798;51.938;4.348;2023-03-31T09:25:19;99788.66;;;13.74;78.23
17362;BME280;8798;51.938;4.348;2023-03-31T09:27:49;99784.97;;;13.75;78.10
17362;BME280;8798;51.938;4.348;2023-03-31T09:30:21;99770.00;;;13.72;78.11
17362;BME280;8798;51.938;4.348;2023-03-31T09:32:53;99747.13;;;13.68;78.14
17362;BME280;8798;51.938;4.348;2023-03-31T09:35:25;99712.63;;;13.64;77.75
17362;BME280;8798;51.938;4.348;2023-03-31T09:37:54;99675.88;;;13.56;77.59
17362;BME280;8798;51.938;4.348;2023-03-31T09:40:25;99665.25;;;13.54;77.71
17362;BME280;8798;51.938;4.348;2023-03-31T09:42:57;99671.28;;;13.57;77.44
17362;BME280;8798;51.938;4.348;2023-03-31T09:45:26;99655.31;;;13.55;77.79
17362;BME280;8798;51.938;4.348;2023-03-31T09:47:58;99655.31;;;13.55;77.63
17362;BME280;8798;51.938;4.348;2023-03-31T09:50:28;99655.09;;;13.57;77.99
17362;BME280;8798;51.938;4.348;2023-03-31T09:53:01;99634.13;;;13.52;77.51
17362;BME280;8798;51.938;4.348;2023-03-31T09:55:42;99591.13;;;13.44;77.54
17362;BME280;8798;51.938;4.348;2023-03-31T09:58:13;99579.31;;;13.45;77.82
17362;BME280;8798;51.938;4.348;2023-03-31T10:00:43;99591.34;;;13.49;77.64
17362;BME280;8798;51.938;4.348;2023-03-31T10:03:23;99623.78;;;13.55;77.55
17362;BME280;8798;51.938;4.348;2023-03-31T10:05:54;99619.19;;;13.56;77.73
17362;BME280;8798;51.938;4.348;2023-03-31T10:08:28;99601.56;;;13.53;77.49
17362;BME280;8798;51.938;4.348;2023-03-31T10:11:09;99572.47;;;13.49;77.42
17362;BME280;8798;51.938;4.348;2023-03-31T10:13:47;99538.63;;;13.40;77.40
17362;BME280;8798;51.938;4.348;2023-03-31T10:16:22;99500.84;;;13.33;77.51
17362;BME280;8798;51.938;4.348;2023-03-31T10:18:50;99487.97;;;13.28;77.52
17362;BME280;8798;51.938;4.348;2023-03-31T10:21:26;99456.19;;;13.24;77.57
17362;BME280;8798;51.938;4.348;2023-03-31T10:23:54;99449.97;;;13.23;77.54
17362;BME280;8798;51.938;4.348;2023-03-31T10:26:28;99467.41;;;13.27;77.52
17362;BME280;8798;51.938;4.348;2023-03-31T10:28:56;99462.03;;;13.27;77.50
17362;BME280;8798;51.938;4.348;2023-03-31T10:31:25;99457.66;;;13.26;77.65
17362;BME280;8798;51.938;4.348;2023-03-31T10:34:04;99461.63;;;13.30;77.66
17362;BME280;8798;51.938;4.348;2023-03-31T10:36:32;99464.34;;;13.30;77.58
17362;BME280;8798;51.938;4.348;2023-03-31T10:39:04;99472.84;;;13.34;77.77
17362;BME280;8798;51.938;4.348;2023-03-31T10:41:34;99498.16;;;13.40;77.15
17362;BME280;8798;51.938;4.348;2023-03-31T10:44:03;99488.41;;;13.39;77.61
17362;BME280;8798;51.938;4.348;2023-03-31T10:46:41;99483.00;;;13.39;77.21
17362;BME280;8798;51.938;4.348;2023-03-31T10:49:23;99464.75;;;13.34;77.30
17362;BME280;8798;51.938;4.348;2023-03-31T10:51:53;99453.94;;;13.34;77.60
17362;BME280;8798;51.938;4.348;2023-03-31T10:54:21;99466.00;;;13.38;77.57
17362;BME280;8798;51.938;4.348;2023-03-31T10:56:53;99470.97;;;13.41;77.35
17362;BME280;8798;51.938;4.348;2023-03-31T10:59:38;99473.88;;;13.40;77.30
17362;BME280;8798;51.938;4.348;2023-03-31T11:02:30;99460.63;;;13.38;78.11
17362;BME280;8798;51.938;4.348;2023-03-31T11:05:12;99420.13;;;13.31;77.20
17362;BME280;8798;51.938;4.348;2023-03-31T11:07:51;99404.56;;;13.27;77.41
17362;BME280;8798;51.938;4.348;2023-03-31T11:10:34;99407.06;;;13.28;77.15
17362;BME280;8798;51.938;4.348;2023-03-31T11:13:08;99400.63;;;13.29;77.45
17362;BME280;8798;51.938;4.348;2023-03-31T11:15:52;99403.94;;;13.31;77.47
17362;BME280;8798;51.938;4.348;2023-03-31T11:18:49;99407.47;;;13.32;77.14
17362;BME280;8798;51.938;4.348;2023-03-31T11:21:26;99395.22;;;13.29;76.91
17362;BME280;8798;51.938;4.348;2023-03-31T11:24:03;99398.75;;;13.30;77.25
17362;BME280;8798;51.938;4.348;2023-03-31T11:26:42;99408.28;;;13.32;77.54
17362;BME280;8798;51.938;4.348;2023-03-31T11:29:36;99399.38;;;13.32;77.34
17362;BME280;8798;51.938;4.348;2023-03-31T11:32:28;99400.00;;;13.34;77.31
17362;BME280;8798;51.938;4.348;2023-03-31T11:35:09;99424.50;;;13.39;77.41
17362;BME280;8798;51.938;4.348;2023-03-31T11:37:53;99429.47;;;13.42;77.38
17362;BME280;8798;51.938;4.348;2023-03-31T11:40:38;99443.41;;;13.46;77.27
17362;BME280;8798;51.938;4.348;2023-03-31T11:43:18;99446.50;;;13.49;77.56
17362;BME280;8798;51.938;4.348;2023-03-31T11:45:50;99473.50;;;13.56;77.42
17362;BME280;8798;51.938;4.348;2023-03-31T11:48:25;99488.84;;;13.62;76.91
17362;BME280;8798;51.938;4.348;2023-03-31T11:50:58;99482.84;;;13.60;77.13
17362;BME280;8798;51.938;4.348;2023-03-31T11:53:31;99451.28;;;13.54;77.07
17362;BME280;8798;51.938;4.348;2023-03-31T11:56:02;99411.66;;;13.48;76.83
17362;BME280;8798;51.938;4.348;2023-03-31T11:58:34;99411.66;;;13.48;76.83
17362;BME280;8798;51.938;4.348;2023-03-31T12:01:08;99399.19;;;13.47;77.19
17362;BME280;8798;51.938;4.348;2023-03-31T12:03:51;99386.31;;;13.42;76.86
17362;BME280;8798;51.938;4.348;2023-03-31T12:06:21;99378.44;;;13.41;76.63
17362;BME280;8798;51.938;4.348;2023-03-31T12:08:59;99379.28;;;13.41;77.16
17362;BME280;8798;51.938;4.348;2023-03-31T12:11:34;99356.25;;;13.39;77.12
17362;BME280;8798;51.938;4.348;2023-03-31T12:14:14;99335.28;;;13.34;76.96
17362;BME280;8798;51.938;4.348;2023-03-31T12:16:51;99337.78;;;13.36;77.03
17362;BME280;8798;51.938;4.348;2023-03-31T12:19:21;99319.53;;;13.31;77.05
17362;BME280;8798;51.938;4.348;2023-03-31T12:21:55;99312.44;;;13.30;77.21
17362;BME280;8798;51.938;4.348;2023-03-31T12:24:25;99328.25;;;13.33;77.22
17362;BME280;8798;51.938;4.348;2023-03-31T12:27:00;99351.47;;;13.41;77.13
17362;BME280;8798;51.938;4.348;2023-03-31T12:29:34;99369.75;;;13.45;77.15
17362;BME280;8798;51.938;4.348;2023-03-31T12:32:10;99373.03;;;13.47;77.29
17362;BME280;8798;51.938;4.348;2023-03-31T12:34:42;99326.56;;;13.39;76.94
17362;BME280;8798;51.938;4.348;2023-03-31T12:37:52;99307.69;;;13.32;77.02
17362;BME280;8798;51.938;4.348;2023-03-31T12:40:32;99268.25;;;13.24;77.25
17362;BME280;8798;51.938;4.348;2023-03-31T12:43:32;99239.63;;;13.17;76.99
17362;BME280;8798;51.938;4.348;2023-03-31T12:46:21;99238.81;;;13.16;77.05
17362;BME280;8798;51.938;4.348;2023-03-31T12:49:00;99261.41;;;13.22;76.98
17362;BME280;8798;51.938;4.348;2023-03-31T12:51:50;99278.84;;;13.26;77.21
17362;BME280;8798;51.938;4.348;2023-03-31T12:54:35;99290.69;;;13.31;77.12
17362;BME280;8798;51.938;4.348;2023-03-31T12:57:13;99307.06;;;13.37;77.33
17362;BME280;8798;51.938;4.348;2023-03-31T13:00:11;99332.16;;;13.44;77.46
17362;BME280;8798;51.938;4.348;2023-03-31T13:02:44;99359.34;;;13.49;77.12
17362;BME280;8798;51.938;4.348;2023-03-31T13:05:44;99373.03;;;13.54;77.30
17362;BME280;8798;51.938;4.348;2023-03-31T13:08:50;99385.09;;;13.58;77.33
17362;BME280;8798;51.938;4.348;2023-03-31T13:11:19;99399.59;;;13.64;77.44
17362;BME280;8798;51.938;4.348;2023-03-31T13:13:58;99417.69;;;13.70;77.40
17362;BME280;8798;51.938;4.348;2023-03-31T13:16:27;99434.09;;;13.75;77.28
17362;BME280;8798;51.938;4.348;2023-03-31T13:18:56;99439.25;;;13.76;77.04
17362;BME280;8798;51.938;4.348;2023-03-31T13:21:25;99472.28;;;13.85;76.91
17362;BME280;8798;51.938;4.348;2023-03-31T13:23:58;99469.34;;;13.87;77.04
17362;BME280;8798;51.938;4.348;2023-03-31T13:26:41;99478.72;;;13.91;77.30
17362;BME280;8798;51.938;4.348;2023-03-31T13:29:22;99495.75;;;13.98;77.03
17362;BME280;8798;51.938;4.348;2023-03-31T13:32:20;99505.50;;;13.99;76.91
17362;BME280;8798;51.938;4.348;2023-03-31T13:34:53;99493.44;;;14.02;76.87
17362;BME280;8798;51.938;4.348;2023-03-31T13:37:36;99511.97;;;14.05;77.18
17362;BME280;8798;51.938;4.348;2023-03-31T13:40:31;99486.19;;;14.02;77.00
17362;BME280;8798;51.938;4.348;2023-03-31T13:43:35;99448.59;;;13.94;77.22
17362;BME280;8798;51.938;4.348;2023-03-31T13:46:20;99427.41;;;13.91;77.15
17362;BME280;8798;51.938;4.348;2023-03-31T13:49:01;99424.53;;;13.92;76.84